createdAt,value
2019-03-18T00:00:28.648Z,4.88
2019-03-18T00:01:28.651Z,4.88
2019-03-18T00:02:28.701Z,4.86
2019-03-18T00:03:28.692Z,4.73
2019-03-18T00:04:43.357Z,4.7
2019-03-18T00:05:28.714Z,4.73
2019-03-18T00:06:43.385Z,4.77
2019-03-18T00:07:28.489Z,4.78
2019-03-18T00:08:43.424Z,4.65
2019-03-18T00:09:28.767Z,4.69
2019-03-18T00:10:28.783Z,4.69
2019-03-18T00:11:28.555Z,4.54
2019-03-18T00:12:28.561Z,4.59
2019-03-18T00:13:28.825Z,4.58
2019-03-18T00:14:43.510Z,4.66
2019-03-18T00:15:28.862Z,4.6
2019-03-18T00:16:28.925Z,4.65
2019-03-18T00:17:28.884Z,4.63
2019-03-18T00:18:28.903Z,4.69
2019-03-18T00:19:28.966Z,4.69
2019-03-18T00:20:43.596Z,4.66
2019-03-18T00:21:43.607Z,4.6
2019-03-18T00:22:28.966Z,4.63
2019-03-18T00:23:28.973Z,4.6
2019-03-18T00:24:43.651Z,4.59
2019-03-18T00:25:29.006Z,4.6
2019-03-18T00:26:29.025Z,4.58
2019-03-18T00:27:29.033Z,4.52
2019-03-18T00:28:29.048Z,4.55
2019-03-18T00:29:29.062Z,4.59
2019-03-18T00:31:29.090Z,4.54
2019-03-18T00:32:29.129Z,4.45
2019-03-18T00:33:29.123Z,4.44
2019-03-18T00:34:29.190Z,4.45
2019-03-18T00:35:29.155Z,4.45
2019-03-18T00:36:29.164Z,4.51
2019-03-18T00:37:29.231Z,4.41
2019-03-18T00:38:29.205Z,4.5
2019-03-18T00:39:29.209Z,4.41
2019-03-18T00:40:43.889Z,4.36
2019-03-18T00:41:29.242Z,4.45
2019-03-18T00:42:29.255Z,4.47
2019-03-18T00:43:29.271Z,4.37
2019-03-18T00:44:29.291Z,4.48
2019-03-18T00:45:29.298Z,4.32
2019-03-18T00:46:29.318Z,4.32
2019-03-18T00:47:29.326Z,4.37
2019-03-18T00:48:29.093Z,4.47
2019-03-18T00:49:29.370Z,4.32
2019-03-18T00:50:29.378Z,4.36
2019-03-18T00:51:29.387Z,4.36
2019-03-18T00:52:29.404Z,4.36
2019-03-18T00:53:44.076Z,4.32
2019-03-18T00:54:29.428Z,4.37
2019-03-18T00:55:44.111Z,4.3
2019-03-18T00:56:29.463Z,4.37
2019-03-18T00:57:29.473Z,4.33
2019-03-18T00:58:29.495Z,4.23
2019-03-18T00:59:29.501Z,4.27
2019-03-18T01:00:29.519Z,4.33
2019-03-18T01:01:29.529Z,4.26
2019-03-18T01:02:29.549Z,4.34
2019-03-18T01:03:44.227Z,4.34
2019-03-18T01:04:29.576Z,4.27
2019-03-18T01:05:29.598Z,4.24
2019-03-18T01:06:29.619Z,4.36
2019-03-18T01:07:29.637Z,4.3
2019-03-18T01:08:29.637Z,4.36
2019-03-18T01:09:29.855Z,4.34
2019-03-18T01:10:29.664Z,4.24
2019-03-18T01:11:29.676Z,4.24
2019-03-18T01:12:29.766Z,4.23
2019-03-18T01:13:29.704Z,4.27
2019-03-18T01:14:29.723Z,4.2
2019-03-18T01:15:33.169Z,4.32
2019-03-18T01:16:29.750Z,4.3
2019-03-18T01:17:29.515Z,4.27
2019-03-18T01:18:29.777Z,4.3
2019-03-18T01:20:29.805Z,4.3
2019-03-18T01:21:29.823Z,4.26
2019-03-18T01:22:29.848Z,4.23
2019-03-18T01:23:29.853Z,4.12
2019-03-18T01:24:29.872Z,4.15
2019-03-18T01:25:29.881Z,4.27
2019-03-18T01:27:44.355Z,4.2
2019-03-18T01:28:29.932Z,4.27
2019-03-18T01:29:29.943Z,4.34
2019-03-18T01:30:29.950Z,4.36
2019-03-18T01:31:29.718Z,4.32
2019-03-18T01:32:30.034Z,4.27
2019-03-18T01:33:30.005Z,4.23
2019-03-18T01:34:30.006Z,4.26
2019-03-18T01:35:30.027Z,4.22
2019-03-18T01:36:30.039Z,4.18
2019-03-18T01:39:30.186Z,4.22
2019-03-18T01:40:30.100Z,4.15
2019-03-18T01:41:30.118Z,4.2
2019-03-18T01:42:30.175Z,4.27
2019-03-18T01:43:44.798Z,4.24
2019-03-18T01:44:30.164Z,4.16
2019-03-18T01:45:42.395Z,4.11
2019-03-18T01:46:30.183Z,4.15
2019-03-18T01:47:30.196Z,4.26
2019-03-18T01:48:30.205Z,4.14
2019-03-18T01:49:30.221Z,4.16
2019-03-18T01:50:30.239Z,4.2
2019-03-18T01:51:30.253Z,4.22
2019-03-18T01:52:30.266Z,4.18
2019-03-18T01:54:44.957Z,4.18
2019-03-18T01:55:44.971Z,4.18
2019-03-18T01:56:30.319Z,4.08
2019-03-18T01:57:30.336Z,4.16
2019-03-18T01:58:30.353Z,4.12
2019-03-18T01:59:45.028Z,4.11
2019-03-18T02:00:30.393Z,4.09
2019-03-18T02:01:30.396Z,4.06
2019-03-18T02:02:30.458Z,4.16
2019-03-18T02:03:30.421Z,4.12
2019-03-18T02:04:30.446Z,4.09
2019-03-18T02:06:30.468Z,4.05
2019-03-18T02:08:30.646Z,4.02
2019-03-18T02:09:30.518Z,4.04
2019-03-18T02:10:45.202Z,4.02
2019-03-18T02:11:30.636Z,4.06
2019-03-18T02:12:30.556Z,4.04
2019-03-18T02:13:30.616Z,4
2019-03-18T02:14:30.589Z,3.97
2019-03-18T02:15:55.627Z,4
2019-03-18T02:16:30.612Z,4.08
2019-03-18T02:17:30.723Z,4.05
2019-03-18T02:18:30.634Z,4.02
2019-03-18T02:19:30.648Z,4.06
2019-03-18T02:20:30.669Z,4
2019-03-18T02:21:30.678Z,3.96
2019-03-18T02:22:30.703Z,4
2019-03-18T02:23:30.707Z,4.04
2019-03-18T02:26:30.766Z,3.93
2019-03-18T02:27:30.767Z,3.98
2019-03-18T02:28:30.778Z,3.93
2019-03-18T02:29:30.792Z,3.88
2019-03-18T02:30:45.483Z,3.88
2019-03-18T02:31:30.848Z,3.9
2019-03-18T02:32:30.838Z,3.98
2019-03-18T02:33:30.850Z,3.94
2019-03-18T02:34:30.873Z,3.94
2019-03-18T02:35:45.648Z,3.91
2019-03-18T02:36:31.004Z,3.91
2019-03-18T02:37:30.934Z,3.91
2019-03-18T02:38:30.998Z,3.88
2019-03-18T02:39:30.961Z,3.83
2019-03-18T02:40:30.958Z,3.93
2019-03-18T02:41:31.104Z,3.94
2019-03-18T02:42:31.085Z,3.83
2019-03-18T02:43:30.996Z,3.84
2019-03-18T02:44:31.054Z,3.86
2019-03-18T02:45:31.023Z,3.84
2019-03-18T02:46:31.044Z,3.79
2019-03-18T02:47:31.152Z,3.86
2019-03-18T02:48:31.180Z,3.8
2019-03-18T02:49:31.188Z,3.83
2019-03-18T02:50:31.100Z,3.84
2019-03-18T02:51:31.116Z,3.79
2019-03-18T02:52:31.182Z,3.88
2019-03-18T02:53:31.137Z,3.88
2019-03-18T02:54:31.161Z,3.88
2019-03-18T02:55:31.168Z,3.84
2019-03-18T02:56:31.212Z,3.93
2019-03-18T02:57:45.863Z,3.88
2019-03-18T02:58:31.221Z,3.78
2019-03-18T02:59:31.219Z,3.84
2019-03-18T03:00:31.233Z,3.9
2019-03-18T03:01:31.257Z,3.91
2019-03-18T03:02:45.927Z,3.88
2019-03-18T03:03:31.281Z,3.96
2019-03-18T03:04:31.074Z,3.87
2019-03-18T03:05:31.300Z,3.9
2019-03-18T03:06:31.343Z,3.9
2019-03-18T03:07:31.370Z,3.9
2019-03-18T03:08:31.351Z,3.91
2019-03-18T03:09:31.364Z,3.87
2019-03-18T03:10:31.393Z,3.87
2019-03-18T03:11:34.205Z,3.88
2019-03-18T03:12:46.108Z,3.91
2019-03-18T03:13:31.423Z,3.83
2019-03-18T03:14:31.580Z,3.79
2019-03-18T03:15:31.459Z,3.9
2019-03-18T03:17:31.572Z,3.75
2019-03-18T03:18:46.149Z,3.88
2019-03-18T03:19:31.498Z,3.84
2019-03-18T03:20:31.608Z,3.8
2019-03-18T03:21:31.543Z,3.79
2019-03-18T03:22:31.594Z,3.83
2019-03-18T03:23:31.568Z,3.79
2019-03-18T03:25:31.341Z,3.84
2019-03-18T03:26:31.623Z,3.87
2019-03-18T03:27:31.618Z,3.83
2019-03-18T03:28:31.626Z,3.83
2019-03-18T03:29:31.651Z,3.86
2019-03-18T03:30:31.679Z,3.83
2019-03-18T03:31:46.344Z,3.73
2019-03-18T03:32:46.429Z,3.8
2019-03-18T03:33:31.706Z,3.83
2019-03-18T03:34:46.393Z,3.73
2019-03-18T03:35:31.769Z,3.8
2019-03-18T03:36:31.745Z,3.8
2019-03-18T03:37:31.509Z,3.72
2019-03-18T03:38:31.786Z,3.83
2019-03-18T03:39:31.784Z,3.72
2019-03-18T03:40:31.793Z,3.73
2019-03-18T03:41:31.809Z,3.73
2019-03-18T03:42:46.489Z,3.8
2019-03-18T03:43:31.844Z,3.78
2019-03-18T03:44:31.960Z,3.73
2019-03-18T03:45:31.869Z,3.7
2019-03-18T03:47:46.554Z,3.7
2019-03-18T03:48:31.924Z,3.78
2019-03-18T03:49:31.920Z,3.7
2019-03-18T03:50:46.612Z,3.68
2019-03-18T03:51:31.950Z,3.72
2019-03-18T03:52:31.992Z,3.68
2019-03-18T03:53:35.599Z,3.69
2019-03-18T03:54:32.039Z,3.69
2019-03-18T03:55:32.273Z,3.57
2019-03-18T03:56:32.020Z,3.6
2019-03-18T03:57:32.050Z,3.6
2019-03-18T03:58:32.115Z,3.57
2019-03-18T03:59:32.118Z,3.68
2019-03-18T04:00:32.073Z,3.61
2019-03-18T04:01:34.299Z,3.65
2019-03-18T04:02:32.191Z,3.78
2019-03-18T04:03:43.067Z,3.78
2019-03-18T04:04:32.130Z,3.69
2019-03-18T04:06:32.161Z,3.69
2019-03-18T04:07:32.217Z,3.73
2019-03-18T04:08:32.188Z,3.62
2019-03-18T04:09:32.201Z,3.7
2019-03-18T04:10:32.218Z,3.75
2019-03-18T04:11:32.227Z,3.65
2019-03-18T04:12:32.258Z,3.78
2019-03-18T04:13:32.263Z,3.7
2019-03-18T04:14:32.327Z,3.73
2019-03-18T04:16:32.334Z,3.7
2019-03-18T04:17:32.316Z,3.73
2019-03-18T04:18:32.327Z,3.78
2019-03-18T04:19:32.401Z,3.8
2019-03-18T04:20:32.356Z,3.68
2019-03-18T04:21:32.461Z,3.73
2019-03-18T04:22:32.389Z,3.87
2019-03-18T04:23:32.412Z,3.86
2019-03-18T04:24:32.486Z,3.79
2019-03-18T04:25:32.417Z,3.8
2019-03-18T04:26:32.437Z,3.9
2019-03-18T04:27:32.471Z,3.7
2019-03-18T04:28:32.499Z,3.73
2019-03-18T04:29:32.540Z,3.79
2019-03-18T04:30:32.528Z,3.79
2019-03-18T04:31:32.517Z,3.72
2019-03-18T04:32:32.552Z,3.83
2019-03-18T04:33:32.585Z,3.83
2019-03-18T04:34:32.649Z,3.84
2019-03-18T04:35:32.588Z,3.87
2019-03-18T04:36:32.689Z,3.96
2019-03-18T04:38:32.601Z,3.88
2019-03-18T04:39:32.649Z,3.86
2019-03-18T04:40:32.637Z,3.87
2019-03-18T04:41:32.635Z,3.79
2019-03-18T04:42:32.661Z,3.79
2019-03-18T04:43:32.666Z,3.88
2019-03-18T04:44:32.680Z,3.98
2019-03-18T04:45:32.695Z,4.02
2019-03-18T04:46:32.465Z,4.02
2019-03-18T04:47:32.722Z,4.08
2019-03-18T04:48:32.738Z,4.11
2019-03-18T04:49:32.748Z,4.05
2019-03-18T04:50:32.762Z,4.15
2019-03-18T04:51:32.776Z,4.24
2019-03-18T04:52:32.798Z,4.3
2019-03-18T04:53:47.466Z,4.3
2019-03-18T04:54:32.817Z,4.4
2019-03-18T04:55:32.828Z,4.3
2019-03-18T04:56:32.847Z,4.42
2019-03-18T04:57:32.869Z,4.45
2019-03-18T04:58:32.871Z,4.41
2019-03-18T04:59:32.892Z,4.41
2019-03-18T05:00:33.002Z,4.44
2019-03-18T05:02:32.930Z,4.63
2019-03-18T05:03:32.945Z,4.55
2019-03-18T05:04:32.957Z,4.51
2019-03-18T05:05:47.634Z,4.59
2019-03-18T05:06:32.986Z,4.5
2019-03-18T05:07:32.997Z,4.55
2019-03-18T05:09:47.690Z,4.66
2019-03-18T05:10:33.040Z,4.62
2019-03-18T05:11:33.054Z,4.58
2019-03-18T05:12:33.070Z,4.62
2019-03-18T05:13:33.113Z,4.63
2019-03-18T05:14:33.100Z,4.7
2019-03-18T05:15:33.135Z,4.72
2019-03-18T05:16:33.131Z,4.73
2019-03-18T05:17:33.137Z,4.75
2019-03-18T05:18:33.156Z,4.69
2019-03-18T05:19:33.172Z,4.63
2019-03-18T05:20:33.189Z,4.69
2019-03-18T05:21:33.194Z,4.67
2019-03-18T05:22:47.871Z,4.8
2019-03-18T05:23:33.224Z,4.85
2019-03-18T05:24:33.243Z,4.86
2019-03-18T05:25:48.065Z,4.88
2019-03-18T05:26:33.267Z,4.86
2019-03-18T05:27:33.281Z,4.91
2019-03-18T05:28:33.295Z,4.92
2019-03-18T05:29:33.062Z,4.86
2019-03-18T05:30:33.326Z,4.84
2019-03-18T05:31:33.336Z,4.96
2019-03-18T05:33:33.375Z,4.97
2019-03-18T05:34:33.382Z,4.89
2019-03-18T05:35:33.394Z,4.92
2019-03-18T05:36:33.508Z,4.96
2019-03-18T05:37:48.092Z,4.96
2019-03-18T05:38:33.441Z,5.02
2019-03-18T05:39:33.454Z,5.03
2019-03-18T05:40:48.128Z,5.09
2019-03-18T05:41:33.485Z,4.97
2019-03-18T05:42:33.494Z,5.07
2019-03-18T05:43:33.507Z,4.96
2019-03-18T05:44:33.522Z,5.06
2019-03-18T05:45:33.534Z,5.03
2019-03-18T05:46:33.550Z,5.07
2019-03-18T05:47:44.002Z,4.96
2019-03-18T05:49:33.613Z,5.02
2019-03-18T05:50:33.621Z,5.07
2019-03-18T05:51:33.621Z,5.07
2019-03-18T05:52:33.639Z,5.04
2019-03-18T05:53:48.313Z,5.1
2019-03-18T05:54:33.665Z,5.07
2019-03-18T05:55:33.686Z,5.13
2019-03-18T05:56:33.693Z,5.21
2019-03-18T05:57:33.464Z,5.13
2019-03-18T05:58:33.741Z,5.17
2019-03-18T05:59:33.814Z,5.15
2019-03-18T06:00:33.751Z,5.17
2019-03-18T06:01:33.764Z,5.21
2019-03-18T06:03:33.797Z,5.15
2019-03-18T06:04:33.809Z,5.15
2019-03-18T06:05:33.821Z,5.21
2019-03-18T06:06:48.501Z,5.13
2019-03-18T06:07:33.852Z,5.18
2019-03-18T06:08:33.884Z,5.24
2019-03-18T06:09:48.542Z,5.13
2019-03-18T06:10:33.897Z,5.21
2019-03-18T06:11:33.909Z,5.2
2019-03-18T06:13:33.946Z,5.25
2019-03-18T06:14:33.703Z,5.21
2019-03-18T06:15:33.966Z,5.25
2019-03-18T06:16:34.087Z,5.17
2019-03-18T06:17:33.995Z,5.25
2019-03-18T06:18:34.022Z,5.24
2019-03-18T06:20:34.040Z,5.24
2019-03-18T06:21:34.058Z,5.27
2019-03-18T06:22:34.071Z,5.28
2019-03-18T06:23:34.086Z,5.24
2019-03-18T06:24:48.766Z,5.3
2019-03-18T06:25:34.119Z,5.27
2019-03-18T06:26:34.213Z,5.31
2019-03-18T06:27:34.155Z,5.21
2019-03-18T06:28:48.816Z,5.33
2019-03-18T06:29:34.178Z,5.33
2019-03-18T06:30:34.188Z,5.35
2019-03-18T06:31:34.201Z,5.27
2019-03-18T06:32:34.291Z,5.36
2019-03-18T06:33:34.223Z,5.3
2019-03-18T06:34:34.245Z,5.31
2019-03-18T06:35:48.922Z,5.35
2019-03-18T06:36:34.276Z,5.31
2019-03-18T06:38:34.307Z,5.28
2019-03-18T06:40:34.335Z,5.39
2019-03-18T06:41:49.003Z,5.36
2019-03-18T06:42:34.406Z,5.46
2019-03-18T06:43:34.371Z,5.39
2019-03-18T06:45:34.420Z,5.46
2019-03-18T06:46:34.417Z,5.42
2019-03-18T06:47:34.429Z,5.43
2019-03-18T06:48:48.862Z,5.43
2019-03-18T06:49:34.466Z,5.54
2019-03-18T06:50:34.471Z,5.45
2019-03-18T06:51:34.522Z,5.53
2019-03-18T06:52:34.508Z,5.45
2019-03-18T06:54:34.539Z,5.45
2019-03-18T06:55:49.210Z,5.42
2019-03-18T06:56:34.560Z,5.56
2019-03-18T06:57:49.236Z,5.57
2019-03-18T06:58:34.603Z,5.57
2019-03-18T06:59:34.360Z,5.63
2019-03-18T07:00:49.290Z,5.54
2019-03-18T07:01:34.632Z,5.54
2019-03-18T07:02:34.650Z,5.54
2019-03-18T07:03:34.682Z,5.57
2019-03-18T07:04:34.683Z,5.6
2019-03-18T07:05:34.692Z,5.58
2019-03-18T07:06:34.705Z,5.63
2019-03-18T07:07:34.721Z,5.72
2019-03-18T07:08:34.735Z,5.72
2019-03-18T07:09:34.753Z,5.68
2019-03-18T07:10:34.769Z,5.76
2019-03-18T07:11:34.836Z,5.83
2019-03-18T07:12:49.458Z,5.82
2019-03-18T07:13:34.813Z,5.86
2019-03-18T07:14:34.829Z,5.85
2019-03-18T07:15:49.559Z,6
2019-03-18T07:16:34.861Z,5.99
2019-03-18T07:17:34.878Z,6.09
2019-03-18T07:18:34.893Z,6.03
2019-03-18T07:19:34.949Z,6.17
2019-03-18T07:22:34.956Z,6.14
2019-03-18T07:23:34.964Z,6.27
2019-03-18T07:24:34.973Z,6.19
2019-03-18T07:25:35.008Z,6.14
2019-03-18T07:26:35.005Z,6.27
2019-03-18T07:27:49.684Z,6.25
2019-03-18T07:28:35.042Z,6.4
2019-03-18T07:29:35.055Z,6.27
2019-03-18T07:30:35.166Z,6.36
2019-03-18T07:31:35.096Z,6.36
2019-03-18T07:32:35.095Z,6.34
2019-03-18T07:33:35.112Z,6.46
2019-03-18T07:34:35.124Z,6.46
2019-03-18T07:35:34.895Z,6.56
2019-03-18T07:36:35.158Z,6.59
2019-03-18T07:37:35.174Z,6.58
2019-03-18T07:38:35.206Z,6.56
2019-03-18T07:40:35.235Z,6.59
2019-03-18T07:42:35.307Z,6.76
2019-03-18T07:43:35.275Z,6.85
2019-03-18T07:44:35.278Z,6.95
2019-03-18T07:45:35.403Z,7.16
2019-03-18T07:46:35.314Z,7.13
2019-03-18T07:47:49.992Z,7.24
2019-03-18T07:48:36.374Z,7.28
2019-03-18T07:49:35.363Z,7.42
2019-03-18T07:50:35.378Z,7.28
2019-03-18T07:51:35.390Z,7.25
2019-03-18T07:52:35.407Z,7.35
2019-03-18T07:53:35.425Z,7.24
2019-03-18T07:54:37.947Z,7.21
2019-03-18T07:55:35.459Z,7.23
2019-03-18T07:57:37.623Z,7.37
2019-03-18T07:58:35.266Z,7.31
2019-03-18T07:59:50.284Z,7.39
2019-03-18T08:00:35.699Z,7.52
2019-03-18T08:01:35.562Z,7.45
2019-03-18T08:02:35.570Z,7.5
2019-03-18T08:03:50.249Z,7.43
2019-03-18T08:04:42.304Z,7.43
2019-03-18T08:05:35.620Z,7.34
2019-03-18T08:06:35.634Z,7.25
2019-03-18T08:07:35.651Z,7.24
2019-03-18T08:08:35.973Z,7.21
2019-03-18T08:09:50.406Z,7.27
2019-03-18T08:10:35.697Z,7.16
2019-03-18T08:11:50.382Z,7.24
2019-03-18T08:12:35.748Z,7.21
2019-03-18T08:13:50.460Z,7.09
2019-03-18T08:15:50.443Z,7.09
2019-03-18T08:16:35.896Z,7.12
2019-03-18T08:17:35.813Z,7.03
2019-03-18T08:18:47.460Z,7.09
2019-03-18T08:19:50.510Z,7.12
2019-03-18T08:20:35.878Z,7.07
2019-03-18T08:21:35.877Z,6.98
2019-03-18T08:22:35.954Z,6.98
2019-03-18T08:23:35.923Z,6.94
2019-03-18T08:24:35.922Z,6.98
2019-03-18T08:25:35.938Z,6.99
2019-03-18T08:26:35.956Z,6.95
2019-03-18T08:27:35.969Z,6.98
2019-03-18T08:28:35.988Z,6.98
2019-03-18T08:29:35.856Z,6.98
2019-03-18T08:30:50.763Z,7.05
2019-03-18T08:31:50.750Z,7.12
2019-03-18T08:32:36.054Z,7.06
2019-03-18T08:33:36.072Z,6.97
2019-03-18T08:34:36.080Z,6.95
2019-03-18T08:35:50.761Z,6.98
2019-03-18T08:36:36.114Z,7.02
2019-03-18T08:37:36.129Z,6.94
2019-03-18T08:38:36.157Z,7.02
2019-03-18T08:39:36.162Z,7.03
2019-03-18T08:40:36.175Z,7.06
2019-03-18T08:42:36.315Z,7.27
2019-03-18T08:43:36.222Z,7.25
2019-03-18T08:44:36.391Z,7.16
2019-03-18T08:45:36.256Z,7.31
2019-03-18T08:47:36.294Z,7.32
2019-03-18T08:48:36.313Z,7.24
2019-03-18T08:49:36.323Z,7.23
2019-03-18T08:50:50.998Z,7.17
2019-03-18T08:51:36.354Z,7.25
2019-03-18T08:52:36.369Z,7.24
2019-03-18T08:53:36.384Z,7.24
2019-03-18T08:55:36.416Z,7.35
2019-03-18T08:56:36.438Z,7.48
2019-03-18T08:57:36.454Z,7.45
2019-03-18T08:58:36.464Z,7.5
2019-03-18T08:59:36.477Z,7.49
2019-03-18T09:00:36.501Z,7.55
2019-03-18T09:01:36.519Z,7.6
2019-03-18T09:02:36.572Z,7.61
2019-03-18T09:03:36.546Z,7.58
2019-03-18T09:04:36.312Z,7.67
2019-03-18T09:05:36.690Z,7.61
2019-03-18T09:06:36.648Z,7.64
2019-03-18T09:07:36.605Z,7.69
2019-03-18T09:08:36.775Z,7.6
2019-03-18T09:09:36.640Z,7.6
2019-03-18T09:10:36.658Z,7.69
2019-03-18T09:11:51.342Z,7.61
2019-03-18T09:12:36.691Z,7.53
2019-03-18T09:13:51.676Z,7.6
2019-03-18T09:14:36.717Z,7.55
2019-03-18T09:16:36.760Z,7.52
2019-03-18T09:17:36.774Z,7.63
2019-03-18T09:18:51.448Z,7.55
2019-03-18T09:19:51.462Z,7.67
2019-03-18T09:20:36.818Z,7.61
2019-03-18T09:21:36.834Z,7.63
2019-03-18T09:22:51.513Z,7.6
2019-03-18T09:23:36.875Z,7.67
2019-03-18T09:24:36.985Z,7.58
2019-03-18T09:25:36.909Z,7.64
2019-03-18T09:26:36.916Z,7.58
2019-03-18T09:27:36.986Z,7.68
2019-03-18T09:28:36.953Z,7.68
2019-03-18T09:29:36.962Z,7.69
2019-03-18T09:30:36.979Z,7.72
2019-03-18T09:32:37.011Z,7.77
2019-03-18T09:33:37.090Z,7.86
2019-03-18T09:34:54.537Z,7.98
2019-03-18T09:35:37.059Z,8.04
2019-03-18T09:36:37.128Z,8.25
2019-03-18T09:37:37.099Z,8.4
2019-03-18T09:38:51.770Z,8.5
2019-03-18T09:39:37.125Z,8.59
2019-03-18T09:40:37.244Z,8.86
2019-03-18T09:41:37.156Z,8.89
2019-03-18T09:42:37.173Z,8.91
2019-03-18T09:43:37.190Z,9.39
2019-03-18T09:45:37.277Z,10.02
2019-03-18T09:46:51.910Z,10.07
2019-03-18T09:47:37.271Z,10.26
2019-03-18T09:48:37.348Z,10.32
2019-03-18T09:49:51.957Z,10.25
2019-03-18T09:50:37.365Z,10.3
2019-03-18T09:51:37.330Z,10.17
2019-03-18T09:52:37.356Z,10.22
2019-03-18T09:53:40.138Z,10.18
2019-03-18T09:54:52.050Z,10.2
2019-03-18T09:55:37.401Z,10.26
2019-03-18T09:56:37.417Z,9.99
2019-03-18T09:57:37.439Z,9.58
2019-03-18T09:59:37.470Z,9.24
2019-03-18T10:00:37.506Z,9.08
2019-03-18T10:01:37.528Z,8.95
2019-03-18T10:02:37.534Z,8.8
2019-03-18T10:03:37.546Z,8.63
2019-03-18T10:04:37.612Z,8.52
2019-03-18T10:05:37.579Z,8.43
2019-03-18T10:06:52.261Z,8.41
2019-03-18T10:07:37.629Z,8.41
2019-03-18T10:08:37.700Z,8.43
2019-03-18T10:09:37.668Z,8.41
2019-03-18T10:10:52.330Z,8.4
2019-03-18T10:11:37.714Z,8.44
2019-03-18T10:12:37.763Z,8.37
2019-03-18T10:13:37.766Z,8.53
2019-03-18T10:14:37.743Z,8.44
2019-03-18T10:15:52.423Z,8.55
2019-03-18T10:16:37.770Z,8.45
2019-03-18T10:17:37.785Z,8.47
2019-03-18T10:19:38.752Z,8.48
2019-03-18T10:20:37.839Z,8.47
2019-03-18T10:22:40.751Z,8.53
2019-03-18T10:23:38.007Z,8.52
2019-03-18T10:24:37.906Z,8.62
2019-03-18T10:25:52.590Z,8.8
2019-03-18T10:26:37.992Z,8.98
2019-03-18T10:27:40.199Z,9.08
2019-03-18T10:28:37.980Z,9.31
2019-03-18T10:29:37.996Z,9.33
2019-03-18T10:30:38.852Z,9.33
2019-03-18T10:31:38.028Z,9.38
2019-03-18T10:32:52.711Z,9.23
2019-03-18T10:33:38.071Z,9.17
2019-03-18T10:34:38.078Z,8.98
2019-03-18T10:35:38.097Z,8.98
2019-03-18T10:36:38.117Z,9.05
2019-03-18T10:37:38.133Z,9.01
2019-03-18T10:38:38.149Z,8.79
2019-03-18T10:39:38.166Z,8.92
2019-03-18T10:40:38.182Z,8.91
2019-03-18T10:41:38.201Z,9.11
2019-03-18T10:42:38.221Z,9.36
2019-03-18T10:43:38.283Z,9.48
2019-03-18T10:44:38.250Z,9.57
2019-03-18T10:45:38.020Z,9.64
2019-03-18T10:46:38.291Z,9.97
2019-03-18T10:47:38.302Z,10.02
2019-03-18T10:48:52.988Z,10.2
2019-03-18T10:49:50.187Z,10.2
2019-03-18T10:50:38.408Z,10.29
2019-03-18T10:51:38.439Z,10.34
2019-03-18T10:53:38.409Z,10.74
2019-03-18T10:54:38.493Z,10.71
2019-03-18T10:55:38.499Z,10.64
2019-03-18T10:56:41.058Z,10.63
2019-03-18T10:57:52.947Z,10.48
2019-03-18T10:58:38.505Z,10.48
2019-03-18T10:59:38.576Z,10.71
2019-03-18T11:00:38.591Z,10.91
2019-03-18T11:01:38.556Z,10.7
2019-03-18T11:02:38.580Z,10.67
2019-03-18T11:03:41.453Z,10.48
2019-03-18T11:04:38.714Z,10.48
2019-03-18T11:06:38.650Z,10.48
2019-03-18T11:07:38.668Z,10.32
2019-03-18T11:08:38.685Z,10.3
2019-03-18T11:09:38.709Z,10.08
2019-03-18T11:10:38.730Z,9.93
2019-03-18T11:11:38.745Z,9.84
2019-03-18T11:12:38.807Z,9.74
2019-03-18T11:13:53.445Z,9.72
2019-03-18T11:14:38.799Z,9.84
2019-03-18T11:15:38.819Z,9.81
2019-03-18T11:16:38.840Z,9.69
2019-03-18T11:17:38.863Z,9.65
2019-03-18T11:18:53.635Z,9.78
2019-03-18T11:19:38.885Z,9.72
2019-03-18T11:20:38.905Z,9.78
2019-03-18T11:21:53.591Z,9.83
2019-03-18T11:22:38.950Z,9.65
2019-03-18T11:23:38.977Z,9.58
2019-03-18T11:24:38.749Z,9.46
2019-03-18T11:25:39.044Z,9.29
2019-03-18T11:26:39.016Z,9.13
2019-03-18T11:27:39.032Z,8.98
2019-03-18T11:28:39.055Z,8.87
2019-03-18T11:29:53.729Z,8.86
2019-03-18T11:30:39.085Z,8.76
2019-03-18T11:31:39.105Z,8.7
2019-03-18T11:32:39.122Z,8.71
2019-03-18T11:33:39.141Z,8.55
2019-03-18T11:34:39.155Z,8.63
2019-03-18T11:35:39.173Z,8.59
2019-03-18T11:36:39.194Z,8.58
2019-03-18T11:37:39.210Z,8.47
2019-03-18T11:38:39.230Z,8.43
2019-03-18T11:39:39.301Z,8.43
2019-03-18T11:40:39.261Z,8.5
2019-03-18T11:41:40.933Z,8.37
2019-03-18T11:42:39.295Z,8.33
2019-03-18T11:43:39.313Z,8.48
2019-03-18T11:44:39.344Z,8.55
2019-03-18T11:45:54.021Z,8.68
2019-03-18T11:46:40.628Z,8.61
2019-03-18T11:47:39.386Z,8.7
2019-03-18T11:48:39.422Z,8.83
2019-03-18T11:49:44.406Z,8.98
2019-03-18T11:50:41.404Z,9.08
2019-03-18T11:52:39.471Z,9.32
2019-03-18T11:53:39.489Z,9.46
2019-03-18T11:54:39.651Z,9.53
2019-03-18T11:55:39.627Z,9.64
2019-03-18T11:56:39.544Z,9.74
2019-03-18T11:57:39.563Z,9.87
2019-03-18T11:58:39.579Z,9.94
2019-03-18T11:59:39.614Z,9.93
2019-03-18T12:00:54.278Z,9.87
2019-03-18T12:01:39.637Z,9.83
2019-03-18T12:02:39.748Z,9.84
2019-03-18T12:03:39.670Z,9.93
2019-03-18T12:04:39.688Z,9.94
2019-03-18T12:05:39.707Z,9.83
2019-03-18T12:06:39.731Z,9.87
2019-03-18T12:07:39.740Z,9.75
2019-03-18T12:08:39.760Z,9.69
2019-03-18T12:09:54.443Z,9.72
2019-03-18T12:11:54.482Z,9.54
2019-03-18T12:12:54.496Z,9.65
2019-03-18T12:13:39.849Z,9.58
2019-03-18T12:14:39.867Z,9.65
2019-03-18T12:15:41.360Z,9.57
2019-03-18T12:16:39.901Z,9.58
2019-03-18T12:17:39.922Z,9.57
2019-03-18T12:18:39.966Z,9.69
2019-03-18T12:19:39.974Z,9.78
2019-03-18T12:20:40.126Z,9.89
2019-03-18T12:22:40.594Z,9.96
2019-03-18T12:23:40.039Z,9.84
2019-03-18T12:24:40.054Z,9.96
2019-03-18T12:25:40.067Z,10.08
2019-03-18T12:26:40.092Z,10.05
2019-03-18T12:27:40.101Z,10.14
2019-03-18T12:28:40.122Z,10.15
2019-03-18T12:29:54.803Z,10.25
2019-03-18T12:30:40.162Z,10.25
2019-03-18T12:31:40.178Z,10.29
2019-03-18T12:32:54.855Z,10.26
2019-03-18T12:33:40.209Z,10.22
2019-03-18T12:34:40.281Z,10.18
2019-03-18T12:35:40.262Z,10.27
2019-03-18T12:36:40.267Z,10.51
2019-03-18T12:37:54.960Z,10.66
2019-03-18T12:38:40.353Z,10.64
2019-03-18T12:40:40.362Z,10.7
2019-03-18T12:41:40.361Z,10.91
2019-03-18T12:42:40.377Z,10.89
2019-03-18T12:43:40.398Z,10.82
2019-03-18T12:44:40.412Z,10.68
2019-03-18T12:45:40.440Z,10.6
2019-03-18T12:46:40.454Z,10.45
2019-03-18T12:47:40.472Z,10.25
2019-03-18T12:48:55.147Z,10.15
2019-03-18T12:49:40.528Z,10.07
2019-03-18T12:50:59.282Z,9.83
2019-03-18T12:51:40.540Z,9.69
2019-03-18T12:53:40.585Z,9.29
2019-03-18T12:54:40.605Z,9.24
2019-03-18T12:55:40.618Z,8.94
2019-03-18T12:56:40.686Z,8.52
2019-03-18T12:57:40.701Z,8.28
2019-03-18T12:58:40.670Z,8.33
2019-03-18T12:59:40.697Z,8.43
2019-03-18T13:00:40.706Z,8.36
2019-03-18T13:01:55.383Z,8.43
2019-03-18T13:02:40.738Z,8.38
2019-03-18T13:03:40.898Z,8.4
2019-03-18T13:04:55.517Z,8.44
2019-03-18T13:05:40.800Z,8.58
2019-03-18T13:06:40.809Z,8.41
2019-03-18T13:07:40.836Z,8.4
2019-03-18T13:08:40.857Z,8.34
2019-03-18T13:09:40.871Z,8.11
2019-03-18T13:10:40.882Z,8.01
2019-03-18T13:12:55.581Z,8.19
2019-03-18T13:13:40.936Z,8.26
2019-03-18T13:15:40.967Z,8.44
2019-03-18T13:16:55.646Z,8.45
2019-03-18T13:17:43.720Z,8.48
2019-03-18T13:18:41.020Z,8.52
2019-03-18T13:19:41.088Z,8.55
2019-03-18T13:21:07.237Z,8.56
2019-03-18T13:21:41.070Z,8.59
2019-03-18T13:22:41.088Z,8.53
2019-03-18T13:23:41.192Z,8.53
2019-03-18T13:24:41.127Z,8.65
2019-03-18T13:25:41.144Z,8.74
2019-03-18T13:26:41.215Z,8.79
2019-03-18T13:27:41.181Z,8.76
2019-03-18T13:28:41.245Z,8.76
2019-03-18T13:29:55.927Z,8.79
2019-03-18T13:31:41.249Z,8.89
2019-03-18T13:32:41.264Z,8.98
2019-03-18T13:33:44.129Z,8.96
2019-03-18T13:34:41.300Z,9.08
2019-03-18T13:35:55.982Z,9.13
2019-03-18T13:36:41.336Z,9.08
2019-03-18T13:37:41.354Z,9.08
2019-03-18T13:38:41.371Z,9.23
2019-03-18T13:39:41.390Z,9.15
2019-03-18T13:40:41.412Z,9.28
2019-03-18T13:41:41.486Z,9.36
2019-03-18T13:42:41.544Z,9.26
2019-03-18T13:43:41.462Z,9.31
2019-03-18T13:45:54.302Z,9.4
2019-03-18T13:46:41.515Z,9.33
2019-03-18T13:47:56.280Z,9.39
2019-03-18T13:48:41.303Z,9.33
2019-03-18T13:49:41.319Z,9.4
2019-03-18T13:50:41.587Z,9.28
2019-03-18T13:51:41.616Z,9.28
2019-03-18T13:52:41.720Z,9.14
2019-03-18T13:53:41.639Z,8.87
2019-03-18T13:54:41.660Z,8.91
2019-03-18T13:55:41.731Z,8.79
2019-03-18T13:56:41.694Z,8.74
2019-03-18T13:57:41.711Z,8.73
2019-03-18T13:58:41.727Z,8.74
2019-03-18T13:59:41.748Z,8.73
2019-03-18T14:00:41.820Z,8.65
2019-03-18T14:01:41.788Z,8.7
2019-03-18T14:02:41.801Z,8.63
2019-03-18T14:03:41.817Z,8.58
2019-03-18T14:04:41.852Z,8.47
2019-03-18T14:05:41.953Z,8.37
2019-03-18T14:06:41.871Z,8.18
2019-03-18T14:08:02.731Z,7.89
2019-03-18T14:08:41.955Z,8
2019-03-18T14:09:41.924Z,8.02
2019-03-18T14:10:41.939Z,8.11
2019-03-18T14:11:41.965Z,8.29
2019-03-18T14:12:42.002Z,8.44